CT203 YGEL-YPPH
Flight info
| Callsign | CT203 |
|---|---|
| Flight time | 0h 45m |
| Altitude | 19000 |
| Route | GEL Z41 TEBIP V16 SAPKO |
| Aircraft | DH8D/M-SDE2E3FGRY/H |
Departure
| Time | 2026-04-27 07:27 |
|---|---|
| Airport | Geraldton Airport (YGEL) |
Arrival
| Time | 2026-04-27 08:13 |
|---|---|
| Airport | Perth International Airport (YPPH) |
| Time | Latitude | Longitude | Altitude | Speed | Heading |
|---|---|---|---|---|---|
| 2026-04-27 07:04 | -28.79709 | 114.70287 | 129 ft | 0 kts | 245° |
| 2026-04-27 07:22 | -28.79725 | 114.70277 | 128 ft | 10 kts | 177° |
| 2026-04-27 07:23 | -28.79734 | 114.70343 | 127 ft | 9 kts | 39° |
| 2026-04-27 07:23 | -28.79636 | 114.70382 | 128 ft | 10 kts | 19° |
| 2026-04-27 07:23 | -28.79583 | 114.70451 | 129 ft | 20 kts | 106° |
| 2026-04-27 07:23 | -28.79600 | 114.70503 | 128 ft | 0 kts | 109° |
| 2026-04-27 07:24 | -28.79602 | 114.70511 | 127 ft | 7 kts | 109° |
| 2026-04-27 07:24 | -28.79631 | 114.70625 | 125 ft | 21 kts | 83° |
| 2026-04-27 07:24 | -28.79465 | 114.70709 | 128 ft | 36 kts | 18° |
| 2026-04-27 07:24 | -28.79227 | 114.70799 | 133 ft | 41 kts | 18° |
| 2026-04-27 07:25 | -28.78949 | 114.70904 | 138 ft | 23 kts | 22° |
| 2026-04-27 07:25 | -28.78800 | 114.70931 | 139 ft | 0 kts | 6° |
| 2026-04-27 07:25 | -28.78791 | 114.70931 | 139 ft | 5 kts | 7° |
| 2026-04-27 07:25 | -28.78770 | 114.70972 | 140 ft | 7 kts | 140° |
| 2026-04-27 07:26 | -28.78830 | 114.70949 | 139 ft | 0 kts | 197° |
| 2026-04-27 07:26 | -28.79032 | 114.70873 | 138 ft | 75 kts | 196° |
| 2026-04-27 07:27 | -28.79779 | 114.70592 | 125 ft | 144 kts | 199° |
| 2026-04-27 07:27 | -28.80780 | 114.70192 | 392 ft | 158 kts | 201° |
| 2026-04-27 07:27 | -28.81840 | 114.69827 | 956 ft | 163 kts | 190° |
| 2026-04-27 07:27 | -28.83060 | 114.69963 | 1279 ft | 187 kts | 158° |
| 2026-04-27 07:28 | -28.84073 | 114.70914 | 1698 ft | 205 kts | 131° |
| 2026-04-27 07:28 | -28.84912 | 114.72274 | 2137 ft | 219 kts | 124° |
| 2026-04-27 07:28 | -28.85868 | 114.73734 | 2462 ft | 237 kts | 128° |
| 2026-04-27 07:28 | -28.86939 | 114.75150 | 3151 ft | 235 kts | 139° |
| 2026-04-27 07:29 | -28.88208 | 114.76313 | 3802 ft | 237 kts | 145° |
| 2026-04-27 07:29 | -28.89636 | 114.77247 | 4376 ft | 239 kts | 168° |
| 2026-04-27 07:29 | -28.91226 | 114.77765 | 4998 ft | 243 kts | 163° |
| 2026-04-27 07:29 | -28.92833 | 114.78451 | 5565 ft | 246 kts | 166° |
| 2026-04-27 07:30 | -28.94424 | 114.79291 | 6108 ft | 255 kts | 147° |
| 2026-04-27 07:30 | -28.95866 | 114.80482 | 6669 ft | 262 kts | 145° |
| 2026-04-27 07:30 | -28.97348 | 114.81696 | 7310 ft | 266 kts | 145° |
| 2026-04-27 07:30 | -28.98848 | 114.82906 | 7965 ft | 268 kts | 146° |
| 2026-04-27 07:31 | -29.00395 | 114.84138 | 8597 ft | 270 kts | 146° |
| 2026-04-27 07:31 | -29.01960 | 114.85370 | 9078 ft | 277 kts | 147° |
| 2026-04-27 07:31 | -29.03550 | 114.86615 | 9576 ft | 279 kts | 147° |
| 2026-04-27 07:31 | -29.05168 | 114.87873 | 10084 ft | 279 kts | 147° |
| 2026-04-27 07:32 | -29.06777 | 114.89118 | 10603 ft | 280 kts | 147° |
| 2026-04-27 07:32 | -29.08388 | 114.90360 | 11084 ft | 281 kts | 147° |
| 2026-04-27 07:32 | -29.10008 | 114.91608 | 11544 ft | 283 kts | 147° |
| 2026-04-27 07:32 | -29.11644 | 114.92870 | 11995 ft | 282 kts | 147° |
| 2026-04-27 07:33 | -29.13275 | 114.94124 | 12390 ft | 282 kts | 148° |
| 2026-04-27 07:33 | -29.14922 | 114.95391 | 12750 ft | 284 kts | 148° |
| 2026-04-27 07:33 | -29.16552 | 114.96643 | 13122 ft | 285 kts | 148° |
| 2026-04-27 07:33 | -29.18208 | 114.97915 | 13469 ft | 286 kts | 148° |
| 2026-04-27 07:34 | -29.19849 | 114.99174 | 13793 ft | 288 kts | 148° |
| 2026-04-27 07:34 | -29.21524 | 115.00461 | 14118 ft | 289 kts | 148° |
| 2026-04-27 07:34 | -29.23203 | 115.01749 | 14430 ft | 293 kts | 149° |
| 2026-04-27 07:34 | -29.24887 | 115.03043 | 14779 ft | 292 kts | 149° |
| 2026-04-27 07:35 | -29.26584 | 115.04346 | 15059 ft | 294 kts | 149° |
| 2026-04-27 07:35 | -29.28304 | 115.05668 | 15351 ft | 297 kts | 149° |
| 2026-04-27 07:35 | -29.30006 | 115.06976 | 15695 ft | 296 kts | 148° |
| 2026-04-27 07:35 | -29.31740 | 115.08309 | 15954 ft | 300 kts | 149° |
| 2026-04-27 07:36 | -29.33477 | 115.09645 | 16291 ft | 298 kts | 148° |
| 2026-04-27 07:36 | -29.35204 | 115.10982 | 16512 ft | 302 kts | 147° |
| 2026-04-27 07:36 | -29.36858 | 115.12465 | 16752 ft | 305 kts | 142° |
| 2026-04-27 07:36 | -29.38486 | 115.14055 | 17044 ft | 306 kts | 141° |
| 2026-04-27 07:37 | -29.40108 | 115.15641 | 17305 ft | 306 kts | 141° |
| 2026-04-27 07:37 | -29.41744 | 115.17239 | 17544 ft | 309 kts | 141° |
| 2026-04-27 07:37 | -29.43362 | 115.18819 | 17776 ft | 311 kts | 141° |
| 2026-04-27 07:37 | -29.45015 | 115.20432 | 18065 ft | 309 kts | 141° |
| 2026-04-27 07:38 | -29.46651 | 115.22028 | 18301 ft | 311 kts | 141° |
| 2026-04-27 07:38 | -29.48317 | 115.23653 | 18523 ft | 313 kts | 141° |
| 2026-04-27 07:38 | -29.49970 | 115.25266 | 18793 ft | 313 kts | 141° |
| 2026-04-27 07:38 | -29.51654 | 115.26908 | 18919 ft | 319 kts | 141° |
| 2026-04-27 07:39 | -29.53346 | 115.28558 | 18968 ft | 327 kts | 141° |
| 2026-04-27 07:39 | -29.55115 | 115.30285 | 18977 ft | 337 kts | 141° |
| 2026-04-27 07:39 | -29.56933 | 115.32059 | 18988 ft | 345 kts | 141° |
| 2026-04-27 07:39 | -29.58767 | 115.33850 | 18985 ft | 353 kts | 140° |
| 2026-04-27 07:40 | -29.60657 | 115.35699 | 18986 ft | 359 kts | 141° |
| 2026-04-27 07:40 | -29.62585 | 115.37585 | 18987 ft | 365 kts | 141° |
| 2026-04-27 07:40 | -29.64516 | 115.39474 | 18981 ft | 369 kts | 140° |
| 2026-04-27 07:40 | -29.66495 | 115.41412 | 18983 ft | 373 kts | 140° |
| 2026-04-27 07:41 | -29.68493 | 115.43368 | 18988 ft | 377 kts | 141° |
| 2026-04-27 07:41 | -29.70479 | 115.45315 | 18991 ft | 380 kts | 140° |
| 2026-04-27 07:41 | -29.72520 | 115.47315 | 18985 ft | 382 kts | 140° |
| 2026-04-27 07:41 | -29.74531 | 115.49287 | 18986 ft | 384 kts | 140° |
| 2026-04-27 07:42 | -29.76581 | 115.51300 | 18989 ft | 386 kts | 140° |
| 2026-04-27 07:42 | -29.78606 | 115.53288 | 18982 ft | 387 kts | 140° |
| 2026-04-27 07:42 | -29.80673 | 115.55318 | 18988 ft | 388 kts | 140° |
| 2026-04-27 07:42 | -29.82726 | 115.57336 | 18995 ft | 388 kts | 140° |
| 2026-04-27 07:43 | -29.84779 | 115.59356 | 18995 ft | 389 kts | 140° |
| 2026-04-27 07:43 | -29.86845 | 115.61389 | 18988 ft | 389 kts | 140° |
| 2026-04-27 07:43 | -29.88895 | 115.63408 | 18986 ft | 390 kts | 140° |
| 2026-04-27 07:43 | -29.90978 | 115.65459 | 18996 ft | 390 kts | 140° |
| 2026-04-27 07:44 | -29.93031 | 115.67483 | 18989 ft | 391 kts | 140° |
| 2026-04-27 07:44 | -29.95108 | 115.69531 | 18999 ft | 391 kts | 140° |
| 2026-04-27 07:44 | -29.97160 | 115.71556 | 18995 ft | 391 kts | 140° |
| 2026-04-27 07:44 | -29.99246 | 115.73616 | 18997 ft | 391 kts | 140° |
| 2026-04-27 07:45 | -30.01292 | 115.75636 | 18989 ft | 391 kts | 139° |
| 2026-04-27 07:45 | -30.03376 | 115.77696 | 18993 ft | 390 kts | 140° |
| 2026-04-27 07:45 | -30.05412 | 115.79712 | 19000 ft | 389 kts | 140° |
| 2026-04-27 07:45 | -30.07472 | 115.81752 | 19002 ft | 388 kts | 140° |
| 2026-04-27 07:46 | -30.09517 | 115.83778 | 19008 ft | 387 kts | 140° |
| 2026-04-27 07:46 | -30.11555 | 115.85796 | 19001 ft | 387 kts | 139° |
| 2026-04-27 07:46 | -30.13603 | 115.87827 | 19000 ft | 386 kts | 140° |
| 2026-04-27 07:46 | -30.15631 | 115.89838 | 18992 ft | 385 kts | 140° |
| 2026-04-27 07:47 | -30.17679 | 115.91871 | 19009 ft | 385 kts | 139° |
| 2026-04-27 07:47 | -30.19706 | 115.93883 | 19007 ft | 385 kts | 139° |
| 2026-04-27 07:47 | -30.21739 | 115.95903 | 19010 ft | 385 kts | 140° |
| 2026-04-27 07:47 | -30.23783 | 115.97935 | 19007 ft | 385 kts | 139° |
| 2026-04-27 07:48 | -30.25810 | 115.99951 | 19007 ft | 385 kts | 139° |
| 2026-04-27 07:48 | -30.27844 | 116.01975 | 18993 ft | 385 kts | 140° |
| 2026-04-27 07:48 | -30.29853 | 116.03975 | 18991 ft | 384 kts | 140° |
| 2026-04-27 07:48 | -30.31883 | 116.05997 | 19004 ft | 384 kts | 140° |
| 2026-04-27 07:49 | -30.33914 | 116.08022 | 18998 ft | 384 kts | 140° |
| 2026-04-27 07:49 | -30.35944 | 116.10048 | 19002 ft | 385 kts | 140° |
| 2026-04-27 07:49 | -30.37957 | 116.12055 | 18998 ft | 385 kts | 140° |
| 2026-04-27 07:49 | -30.40000 | 116.14096 | 18997 ft | 385 kts | 140° |
| 2026-04-27 07:50 | -30.42032 | 116.16125 | 18998 ft | 385 kts | 140° |
| 2026-04-27 07:50 | -30.44038 | 116.18130 | 19011 ft | 386 kts | 140° |
| 2026-04-27 07:50 | -30.46086 | 116.20180 | 18994 ft | 386 kts | 140° |
| 2026-04-27 07:50 | -30.48108 | 116.22202 | 18994 ft | 386 kts | 140° |
| 2026-04-27 07:51 | -30.50147 | 116.24245 | 19002 ft | 386 kts | 140° |
| 2026-04-27 07:51 | -30.52193 | 116.26295 | 18997 ft | 386 kts | 140° |
| 2026-04-27 07:51 | -30.54207 | 116.28314 | 18996 ft | 386 kts | 140° |
| 2026-04-27 07:51 | -30.56237 | 116.30351 | 19001 ft | 386 kts | 140° |
| 2026-04-27 07:52 | -30.58286 | 116.32407 | 18999 ft | 387 kts | 140° |
| 2026-04-27 07:52 | -30.60295 | 116.34425 | 19006 ft | 387 kts | 140° |
| 2026-04-27 07:52 | -30.62341 | 116.36480 | 19005 ft | 387 kts | 140° |
| 2026-04-27 07:52 | -30.64383 | 116.38515 | 19001 ft | 387 kts | 141° |
| 2026-04-27 07:53 | -30.66691 | 116.40025 | 18988 ft | 380 kts | 166° |
| 2026-04-27 07:53 | -30.69274 | 116.40295 | 18998 ft | 367 kts | 191° |
| 2026-04-27 07:53 | -30.71781 | 116.39757 | 19004 ft | 364 kts | 198° |
| 2026-04-27 07:53 | -30.74248 | 116.39082 | 19007 ft | 364 kts | 199° |
| 2026-04-27 07:54 | -30.76674 | 116.38354 | 19007 ft | 364 kts | 201° |
| 2026-04-27 07:54 | -30.79134 | 116.37573 | 19015 ft | 364 kts | 201° |
| 2026-04-27 07:54 | -30.81585 | 116.36762 | 19010 ft | 364 kts | 202° |
| 2026-04-27 07:54 | -30.84009 | 116.35937 | 19004 ft | 364 kts | 202° |
| 2026-04-27 07:55 | -30.86443 | 116.35091 | 19010 ft | 365 kts | 202° |
| 2026-04-27 07:55 | -30.88869 | 116.34236 | 19010 ft | 365 kts | 202° |
| 2026-04-27 07:55 | -30.91306 | 116.33367 | 19005 ft | 365 kts | 202° |
| 2026-04-27 07:55 | -30.93740 | 116.32492 | 19006 ft | 365 kts | 203° |
| 2026-04-27 07:56 | -30.96166 | 116.31614 | 19002 ft | 366 kts | 203° |
| 2026-04-27 07:56 | -30.98613 | 116.30721 | 18975 ft | 367 kts | 203° |
| 2026-04-27 07:56 | -31.01061 | 116.29828 | 18594 ft | 369 kts | 203° |
| 2026-04-27 07:56 | -31.03498 | 116.28941 | 18177 ft | 369 kts | 202° |
| 2026-04-27 07:57 | -31.05938 | 116.28053 | 17741 ft | 363 kts | 203° |
| 2026-04-27 07:57 | -31.08348 | 116.27174 | 17301 ft | 359 kts | 203° |
| 2026-04-27 07:57 | -31.10705 | 116.26314 | 16716 ft | 352 kts | 202° |
| 2026-04-27 07:57 | -31.12997 | 116.25478 | 16122 ft | 344 kts | 203° |
| 2026-04-27 07:58 | -31.15266 | 116.24648 | 15533 ft | 336 kts | 203° |
| 2026-04-27 07:58 | -31.17485 | 116.23834 | 14929 ft | 330 kts | 203° |
| 2026-04-27 07:58 | -31.19630 | 116.23044 | 14336 ft | 324 kts | 202° |
| 2026-04-27 07:58 | -31.21766 | 116.22257 | 13777 ft | 316 kts | 202° |
| 2026-04-27 07:59 | -31.23842 | 116.21492 | 13365 ft | 305 kts | 202° |
| 2026-04-27 07:59 | -31.27695 | 116.20078 | 12889 ft | 274 kts | 203° |
| 2026-04-27 07:59 | -31.29474 | 116.19425 | 12650 ft | 261 kts | 204° |
| 2026-04-27 08:00 | -31.31163 | 116.18803 | 12396 ft | 248 kts | 204° |
| 2026-04-27 08:00 | -31.32750 | 116.18218 | 12102 ft | 238 kts | 204° |
| 2026-04-27 08:00 | -31.34346 | 116.17619 | 11624 ft | 242 kts | 205° |
| 2026-04-27 08:00 | -31.35954 | 116.17019 | 11119 ft | 243 kts | 205° |
| 2026-04-27 08:01 | -31.37572 | 116.16415 | 10613 ft | 244 kts | 205° |
| 2026-04-27 08:01 | -31.39187 | 116.15813 | 10111 ft | 245 kts | 204° |
| 2026-04-27 08:01 | -31.40802 | 116.15211 | 9599 ft | 245 kts | 204° |
| 2026-04-27 08:01 | -31.42420 | 116.14612 | 9194 ft | 239 kts | 204° |
| 2026-04-27 08:02 | -31.43959 | 116.14048 | 8966 ft | 225 kts | 204° |
| 2026-04-27 08:02 | -31.45415 | 116.13514 | 8722 ft | 211 kts | 205° |
| 2026-04-27 08:02 | -31.46792 | 116.13007 | 8471 ft | 204 kts | 204° |
| 2026-04-27 08:02 | -31.48148 | 116.12491 | 8196 ft | 207 kts | 205° |
| 2026-04-27 08:03 | -31.49529 | 116.11964 | 7928 ft | 212 kts | 205° |
| 2026-04-27 08:03 | -31.50954 | 116.11424 | 7651 ft | 217 kts | 204° |
| 2026-04-27 08:03 | -31.52396 | 116.10880 | 7375 ft | 221 kts | 204° |
| 2026-04-27 08:03 | -31.53855 | 116.10338 | 7077 ft | 219 kts | 204° |
| 2026-04-27 08:04 | -31.55281 | 116.09818 | 6772 ft | 209 kts | 204° |
| 2026-04-27 08:04 | -31.56652 | 116.09317 | 6460 ft | 200 kts | 204° |
| 2026-04-27 08:04 | -31.57947 | 116.08843 | 6145 ft | 190 kts | 205° |
| 2026-04-27 08:04 | -31.59163 | 116.08395 | 5830 ft | 179 kts | 205° |
| 2026-04-27 08:05 | -31.60309 | 116.07933 | 5496 ft | 164 kts | 217° |
| 2026-04-27 08:05 | -31.61023 | 116.07053 | 5087 ft | 144 kts | 248° |
| 2026-04-27 08:05 | -31.61460 | 116.06024 | 4687 ft | 143 kts | 249° |
| 2026-04-27 08:05 | -31.61878 | 116.04984 | 4750 ft | 134 kts | 249° |
| 2026-04-27 08:06 | -31.62279 | 116.04007 | 4848 ft | 138 kts | 251° |
| 2026-04-27 08:06 | -31.62717 | 116.02927 | 5029 ft | 163 kts | 249° |
| 2026-04-27 08:06 | -31.63211 | 116.01727 | 4990 ft | 158 kts | 249° |
| 2026-04-27 08:06 | -31.63694 | 116.00582 | 4928 ft | 157 kts | 249° |
| 2026-04-27 08:07 | -31.64182 | 115.99422 | 4809 ft | 164 kts | 249° |
| 2026-04-27 08:07 | -31.64729 | 115.98206 | 4678 ft | 173 kts | 237° |
| 2026-04-27 08:07 | -31.65816 | 115.97517 | 4561 ft | 191 kts | 188° |
| 2026-04-27 08:07 | -31.67167 | 115.97678 | 4466 ft | 203 kts | 174° |
| 2026-04-27 08:08 | -31.68605 | 115.97997 | 4343 ft | 214 kts | 173° |
| 2026-04-27 08:08 | -31.70114 | 115.98338 | 4217 ft | 224 kts | 173° |
| 2026-04-27 08:08 | -31.71669 | 115.98689 | 4087 ft | 232 kts | 173° |
| 2026-04-27 08:08 | -31.73289 | 115.99055 | 3896 ft | 237 kts | 172° |
| 2026-04-27 08:09 | -31.74909 | 115.99423 | 3637 ft | 240 kts | 172° |
| 2026-04-27 08:09 | -31.76555 | 115.99793 | 3370 ft | 242 kts | 173° |
| 2026-04-27 08:09 | -31.78230 | 116.00004 | 3107 ft | 239 kts | 188° |
| 2026-04-27 08:09 | -31.79751 | 115.99398 | 2909 ft | 231 kts | 203° |
| 2026-04-27 08:10 | -31.81383 | 115.98932 | 2274 ft | 239 kts | 194° |
| 2026-04-27 08:10 | -31.82906 | 115.98785 | 2100 ft | 209 kts | 179° |
| 2026-04-27 08:10 | -31.84301 | 115.98850 | 1789 ft | 189 kts | 178° |
| 2026-04-27 08:10 | -31.85558 | 115.98861 | 1524 ft | 172 kts | 184° |
| 2026-04-27 08:11 | -31.86682 | 115.98694 | 1284 ft | 155 kts | 192° |
| 2026-04-27 08:11 | -31.87717 | 115.98437 | 977 ft | 154 kts | 197° |
| 2026-04-27 08:11 | -31.88793 | 115.98040 | 832 ft | 166 kts | 194° |
| 2026-04-27 08:11 | -31.89873 | 115.97727 | 641 ft | 151 kts | 192° |
| 2026-04-27 08:12 | -31.90876 | 115.97427 | 428 ft | 148 kts | 195° |
| 2026-04-27 08:12 | -31.91922 | 115.97123 | 284 ft | 158 kts | 193° |
| 2026-04-27 08:12 | -31.92943 | 115.96822 | 101 ft | 142 kts | 193° |
| 2026-04-27 08:12 | -31.93776 | 115.96582 | 76 ft | 98 kts | 195° |
| 2026-04-27 08:13 | -31.94222 | 115.96452 | 76 ft | 8 kts | 192° |
| 2026-04-27 08:13 | -31.94268 | 115.96438 | 76 ft | 17 kts | 195° |
| 2026-04-27 08:13 | -31.94423 | 115.96420 | 76 ft | 21 kts | 153° |
| 2026-04-27 08:13 | -31.94486 | 115.96557 | 76 ft | 11 kts | 103° |
| 2026-04-27 08:14 | -31.94500 | 115.96622 | 76 ft | 9 kts | 104° |
| 2026-04-27 08:14 | -31.94501 | 115.96626 | 76 ft | 0 kts | 104° |
| 2026-04-27 08:14 | -31.94504 | 115.96641 | 76 ft | 8 kts | 104° |
| 2026-04-27 08:14 | -31.94443 | 115.96737 | 76 ft | 13 kts | 13° |
| 2026-04-27 08:15 | -31.94346 | 115.96780 | 76 ft | 13 kts | 59° |
| 2026-04-27 08:15 | -31.94357 | 115.96883 | 76 ft | 11 kts | 104° |
| 2026-04-27 08:15 | -31.94383 | 115.96938 | 76 ft | 3 kts | 165° |
| 2026-04-27 08:15 | -31.94405 | 115.96935 | 76 ft | 2 kts | 193° |
| 2026-04-27 08:16 | -31.94425 | 115.96930 | 76 ft | 0 kts | 194° |